createdAt,value
2022-07-28T00:00:00.577Z,15.79
2022-07-28T00:01:04.864Z,15.80
2022-07-28T00:02:09.384Z,15.82
2022-07-28T00:03:13.738Z,15.83
2022-07-28T00:04:17.997Z,15.85
2022-07-28T00:05:22.319Z,15.87
2022-07-28T00:06:26.620Z,15.88
2022-07-28T00:07:30.988Z,15.90
2022-07-28T00:08:35.373Z,15.91
2022-07-28T00:09:39.681Z,15.93
2022-07-28T00:10:44.178Z,15.94
2022-07-28T00:11:54.634Z,15.95
2022-07-28T00:12:54.987Z,15.93
2022-07-28T00:13:59.464Z,15.91
2022-07-28T00:15:03.735Z,15.91
2022-07-28T00:16:08.193Z,15.90
2022-07-28T00:17:12.433Z,15.89
2022-07-28T00:18:16.802Z,15.86
2022-07-28T00:19:21.152Z,15.82
2022-07-28T00:20:25.433Z,15.77
2022-07-28T00:21:29.817Z,15.71
2022-07-28T00:22:34.140Z,15.66
2022-07-28T00:23:39.722Z,15.61
2022-07-28T00:24:42.858Z,15.57
2022-07-28T00:25:47.256Z,15.55
2022-07-28T00:26:51.602Z,15.53
2022-07-28T00:27:55.986Z,15.51
2022-07-28T00:29:00.340Z,15.48
2022-07-28T00:30:04.785Z,15.45
2022-07-28T00:31:11.008Z,15.44
2022-07-28T00:32:13.448Z,15.45
2022-07-28T00:33:17.789Z,15.47
2022-07-28T00:34:22.085Z,15.49
2022-07-28T00:35:30.942Z,15.48
2022-07-28T00:36:30.855Z,15.45
2022-07-28T00:37:35.239Z,15.42
2022-07-28T00:38:40.791Z,15.38
2022-07-28T00:39:43.828Z,15.34
2022-07-28T00:40:48.243Z,15.31
2022-07-28T00:41:52.576Z,15.30
2022-07-28T00:42:56.992Z,15.32
2022-07-28T00:44:01.368Z,15.34
2022-07-28T00:45:05.713Z,15.35
2022-07-28T00:46:10.236Z,15.34
2022-07-28T00:47:14.471Z,15.30
2022-07-28T00:48:18.853Z,15.27
2022-07-28T00:49:23.307Z,15.25
2022-07-28T00:50:27.594Z,15.23
2022-07-28T00:51:31.971Z,15.21
2022-07-28T00:52:36.346Z,15.21
2022-07-28T00:53:40.677Z,15.21
2022-07-28T00:54:45.023Z,15.20
2022-07-28T00:56:05.638Z,15.21
2022-07-28T00:56:53.671Z,15.21
2022-07-28T00:57:58.075Z,15.22
2022-07-28T00:59:02.510Z,15.22
2022-07-28T01:00:06.833Z,15.22
2022-07-28T01:01:11.126Z,15.22
2022-07-28T01:02:15.635Z,15.21
2022-07-28T01:03:19.905Z,15.21
2022-07-28T01:04:24.291Z,15.20
2022-07-28T01:05:43.844Z,15.19
2022-07-28T01:06:32.964Z,15.18
2022-07-28T01:07:37.425Z,15.18
2022-07-28T01:08:41.731Z,15.16
2022-07-28T01:09:46.156Z,15.15
2022-07-28T01:10:50.446Z,15.13
2022-07-28T01:11:54.794Z,15.09
2022-07-28T01:12:59.173Z,15.06
2022-07-28T01:14:03.536Z,15.03
2022-07-28T01:15:07.857Z,14.99
2022-07-28T01:16:12.186Z,14.94
2022-07-28T01:17:16.528Z,14.90
2022-07-28T01:18:20.886Z,14.88
2022-07-28T01:19:25.331Z,14.86
2022-07-28T01:20:29.623Z,14.84
2022-07-28T01:21:33.993Z,14.83
2022-07-28T01:22:38.466Z,14.83
2022-07-28T01:23:42.868Z,14.83
2022-07-28T01:24:47.200Z,14.83
2022-07-28T01:25:51.539Z,14.84
2022-07-28T01:27:02.003Z,14.85
2022-07-28T01:28:05.016Z,14.86
2022-07-28T01:29:09.419Z,14.86
2022-07-28T01:30:13.781Z,14.85
2022-07-28T01:31:18.171Z,14.83
2022-07-28T01:32:22.427Z,14.83
2022-07-28T01:33:26.773Z,14.84
2022-07-28T01:34:31.143Z,14.86
2022-07-28T01:35:35.509Z,14.87
2022-07-28T01:36:39.856Z,14.88
2022-07-28T01:37:44.274Z,14.89
2022-07-28T01:38:48.598Z,14.91
2022-07-28T01:39:52.954Z,14.94
2022-07-28T01:40:57.316Z,14.97
2022-07-28T01:42:01.655Z,15.00
2022-07-28T01:43:06.012Z,15.02
2022-07-28T01:44:10.531Z,15.04
2022-07-28T01:45:14.711Z,15.04
2022-07-28T01:46:19.139Z,15.02
2022-07-28T01:47:23.408Z,15.02
2022-07-28T01:48:27.771Z,15.02
2022-07-28T01:49:32.166Z,15.03
2022-07-28T01:50:36.411Z,15.03
2022-07-28T01:51:40.934Z,15.02
2022-07-28T01:52:45.234Z,15.01
2022-07-28T01:53:49.612Z,15.01
2022-07-28T01:54:54.049Z,15.02
2022-07-28T01:55:58.353Z,15.03
2022-07-28T01:57:02.707Z,15.03
2022-07-28T01:58:07.100Z,15.04
2022-07-28T01:59:11.489Z,15.04
2022-07-28T02:00:15.828Z,15.02
2022-07-28T02:01:20.172Z,15.00
2022-07-28T02:02:24.526Z,14.96
2022-07-28T02:03:28.896Z,14.92
2022-07-28T02:04:33.353Z,14.88
2022-07-28T02:05:37.603Z,14.82
2022-07-28T02:06:41.974Z,14.76
2022-07-28T02:07:46.410Z,14.73
2022-07-28T02:08:50.718Z,14.70
2022-07-28T02:09:55.161Z,14.66
2022-07-28T02:10:59.380Z,14.60
2022-07-28T02:12:03.806Z,14.55
2022-07-28T02:13:08.161Z,14.50
2022-07-28T02:14:12.888Z,14.46
2022-07-28T02:15:16.831Z,14.39
2022-07-28T02:16:21.323Z,14.31
2022-07-28T02:17:25.478Z,14.24
2022-07-28T02:18:29.821Z,14.18
2022-07-28T02:19:37.194Z,14.13
2022-07-28T02:20:40.640Z,14.09
2022-07-28T02:21:44.930Z,14.06
2022-07-28T02:22:51.398Z,14.05
2022-07-28T02:23:53.656Z,14.05
2022-07-28T02:25:00.873Z,14.03
2022-07-28T02:26:04.260Z,14.02
2022-07-28T02:27:08.525Z,14.01
2022-07-28T02:28:12.794Z,14.01
2022-07-28T02:29:40.533Z,14.01
2022-07-28T02:30:21.477Z,14.01
2022-07-28T02:31:25.817Z,14.02
2022-07-28T02:32:30.116Z,14.06
2022-07-28T02:33:59.337Z,14.09
2022-07-28T02:34:38.832Z,14.13
2022-07-28T02:35:43.088Z,14.16
2022-07-28T02:36:47.496Z,14.18
2022-07-28T02:37:51.728Z,14.19
2022-07-28T02:38:56.058Z,14.21
2022-07-28T02:40:00.794Z,14.25
2022-07-28T02:41:04.628Z,14.30
2022-07-28T02:42:08.956Z,14.36
2022-07-28T02:43:13.330Z,14.42
2022-07-28T02:44:17.806Z,14.46
2022-07-28T02:45:21.985Z,14.51
2022-07-28T02:46:26.547Z,14.55
2022-07-28T02:47:30.770Z,14.58
2022-07-28T02:48:35.064Z,14.61
2022-07-28T02:49:39.342Z,14.64
2022-07-28T02:50:43.628Z,14.65
2022-07-28T02:51:48.015Z,14.62
2022-07-28T02:52:52.279Z,14.56
2022-07-28T02:53:56.559Z,14.50
2022-07-28T02:55:00.862Z,14.44
2022-07-28T02:56:05.204Z,14.42
2022-07-28T02:57:09.551Z,14.43
2022-07-28T02:58:13.877Z,14.44
2022-07-28T02:59:18.086Z,14.45
2022-07-28T03:00:22.406Z,14.47
2022-07-28T03:01:26.787Z,14.49
2022-07-28T03:02:31.050Z,14.51
2022-07-28T03:03:35.394Z,14.52
2022-07-28T03:04:39.814Z,14.55
2022-07-28T03:05:44.100Z,14.57
2022-07-28T03:06:48.396Z,14.58
2022-07-28T03:07:52.841Z,14.60
2022-07-28T03:08:57.049Z,14.62
2022-07-28T03:10:01.344Z,14.63
2022-07-28T03:11:05.724Z,14.65
2022-07-28T03:12:10.082Z,14.66
2022-07-28T03:13:14.327Z,14.68
2022-07-28T03:14:18.664Z,14.70
2022-07-28T03:15:22.979Z,14.70
2022-07-28T03:16:27.401Z,14.71
2022-07-28T03:17:31.580Z,14.72
2022-07-28T03:18:35.909Z,14.74
2022-07-28T03:19:40.311Z,14.75
2022-07-28T03:20:44.542Z,14.74
2022-07-28T03:21:48.901Z,14.75
2022-07-28T03:22:53.171Z,14.77
2022-07-28T03:23:57.469Z,14.80
2022-07-28T03:25:01.776Z,14.85
2022-07-28T03:26:06.097Z,14.86
2022-07-28T03:27:10.401Z,14.89
2022-07-28T03:28:14.688Z,14.90
2022-07-28T03:29:19.103Z,14.91
2022-07-28T03:30:23.639Z,14.93
2022-07-28T03:31:27.739Z,14.96
2022-07-28T03:32:32.090Z,15.00
2022-07-28T03:33:36.415Z,15.03
2022-07-28T03:34:40.807Z,15.05
2022-07-28T03:35:45.055Z,15.08
2022-07-28T03:36:49.450Z,15.10
2022-07-28T03:37:53.729Z,15.11
2022-07-28T03:38:58.012Z,15.11
2022-07-28T03:40:02.447Z,15.12
2022-07-28T03:41:06.811Z,15.12
2022-07-28T03:42:11.071Z,15.10
2022-07-28T03:43:15.356Z,15.09
2022-07-28T03:44:27.691Z,15.09
2022-07-28T03:45:24.103Z,15.07
2022-07-28T03:46:28.528Z,15.03
2022-07-28T03:47:32.789Z,14.99
2022-07-28T03:48:37.099Z,14.97
2022-07-28T03:49:41.362Z,14.97
2022-07-28T03:50:45.865Z,14.99
2022-07-28T03:51:50.185Z,15.02
2022-07-28T03:52:54.432Z,15.03
2022-07-28T03:53:58.770Z,15.03
2022-07-28T03:55:03.119Z,15.03
2022-07-28T03:56:07.443Z,15.07
2022-07-28T03:57:11.723Z,15.10
2022-07-28T03:58:19.024Z,15.14
2022-07-28T03:59:22.471Z,15.16
2022-07-28T04:00:26.829Z,15.19
2022-07-28T04:01:31.146Z,15.23
2022-07-28T04:02:35.416Z,15.27
2022-07-28T04:03:43.693Z,15.30
2022-07-28T04:04:44.032Z,15.33
2022-07-28T04:05:48.318Z,15.35
2022-07-28T04:06:52.653Z,15.37
2022-07-28T04:07:56.992Z,15.37
2022-07-28T04:09:01.380Z,15.36
2022-07-28T04:10:05.612Z,15.34
2022-07-28T04:11:10.042Z,15.32
2022-07-28T04:12:14.289Z,15.33
2022-07-28T04:13:18.591Z,15.34
2022-07-28T04:14:23.514Z,15.36
2022-07-28T04:15:27.212Z,15.38
2022-07-28T04:16:31.618Z,15.41
2022-07-28T04:17:35.820Z,15.44
2022-07-28T04:18:40.150Z,15.44
2022-07-28T04:19:44.513Z,15.47
2022-07-28T04:20:48.802Z,15.48
2022-07-28T04:21:53.243Z,15.50
2022-07-28T04:22:57.510Z,15.52
2022-07-28T04:24:02.265Z,15.53
2022-07-28T04:25:06.124Z,15.53
2022-07-28T04:26:10.530Z,15.52
2022-07-28T04:27:14.776Z,15.51
2022-07-28T04:28:19.111Z,15.50
2022-07-28T04:29:27.221Z,15.50
2022-07-28T04:30:28.006Z,15.51
2022-07-28T04:31:32.260Z,15.52
2022-07-28T04:32:36.474Z,15.53
2022-07-28T04:33:40.877Z,15.53
2022-07-28T04:34:45.244Z,15.54
2022-07-28T04:35:49.610Z,15.55
2022-07-28T04:36:53.944Z,15.56
2022-07-28T04:37:58.357Z,15.57
2022-07-28T04:39:02.616Z,15.59
2022-07-28T04:40:06.878Z,15.61
2022-07-28T04:41:11.294Z,15.64
2022-07-28T04:42:15.656Z,15.67
2022-07-28T04:43:20.041Z,15.68
2022-07-28T04:44:24.387Z,15.70
2022-07-28T04:45:28.628Z,15.70
2022-07-28T04:46:33.027Z,15.69
2022-07-28T04:47:40.301Z,15.68
2022-07-28T04:48:43.817Z,15.69
2022-07-28T04:49:47.936Z,15.70
2022-07-28T04:50:52.290Z,15.71
2022-07-28T04:51:57.432Z,15.72
2022-07-28T04:53:00.929Z,15.74
2022-07-28T04:54:05.240Z,15.77
2022-07-28T04:55:09.705Z,15.79
2022-07-28T04:56:14.110Z,15.82
2022-07-28T04:57:18.462Z,15.84
2022-07-28T04:58:23.286Z,15.85
2022-07-28T04:59:27.165Z,15.86
2022-07-28T05:00:31.432Z,15.88
2022-07-28T05:01:35.830Z,15.90
2022-07-28T05:02:40.076Z,15.93
2022-07-28T05:03:44.450Z,15.96
2022-07-28T05:04:48.774Z,16.00
2022-07-28T05:05:54.514Z,16.03
2022-07-28T05:06:57.456Z,16.06
2022-07-28T05:08:01.795Z,16.08
2022-07-28T05:09:06.047Z,16.11
2022-07-28T05:10:10.435Z,16.11
2022-07-28T05:11:14.690Z,16.11
2022-07-28T05:12:19.017Z,16.11
2022-07-28T05:13:23.452Z,16.13
2022-07-28T05:14:27.748Z,16.15
2022-07-28T05:15:32.135Z,16.17
2022-07-28T05:16:36.554Z,16.19
2022-07-28T05:17:40.847Z,16.22
2022-07-28T05:18:45.188Z,16.24
2022-07-28T05:19:49.491Z,16.27
2022-07-28T05:20:53.911Z,16.29
2022-07-28T05:21:58.271Z,16.31
2022-07-28T05:23:02.639Z,16.32
2022-07-28T05:24:06.915Z,16.34
2022-07-28T05:25:11.305Z,16.35
2022-07-28T05:26:15.697Z,16.36
2022-07-28T05:27:20.066Z,16.37
2022-07-28T05:28:24.392Z,16.38
2022-07-28T05:29:46.587Z,16.39
2022-07-28T05:30:33.100Z,16.39
2022-07-28T05:31:37.546Z,16.40
2022-07-28T05:32:41.835Z,16.39
2022-07-28T05:33:46.115Z,16.38
2022-07-28T05:34:50.424Z,16.37
2022-07-28T05:35:54.785Z,16.36
2022-07-28T05:36:59.146Z,16.35
2022-07-28T05:38:06.371Z,16.36
2022-07-28T05:39:07.906Z,16.36
2022-07-28T05:40:12.298Z,16.35
2022-07-28T05:41:16.575Z,16.31
2022-07-28T05:42:20.950Z,16.28
2022-07-28T05:43:25.235Z,16.27
2022-07-28T05:44:30.881Z,16.28
2022-07-28T05:45:33.949Z,16.29
2022-07-28T05:46:38.289Z,16.28
2022-07-28T05:47:42.620Z,16.28
2022-07-28T05:48:47.060Z,16.27
2022-07-28T05:49:51.338Z,16.27
2022-07-28T05:50:55.633Z,16.27
2022-07-28T05:52:00.050Z,16.29
2022-07-28T05:53:04.361Z,16.31
2022-07-28T05:54:08.736Z,16.34
2022-07-28T05:55:13.058Z,16.37
2022-07-28T05:56:17.317Z,16.39
2022-07-28T05:57:21.640Z,16.42
2022-07-28T05:58:25.987Z,16.45
2022-07-28T05:59:30.345Z,16.47
2022-07-28T06:00:34.662Z,16.50
2022-07-28T06:01:39.136Z,16.53
2022-07-28T06:02:43.523Z,16.55
2022-07-28T06:03:58.183Z,16.56
2022-07-28T06:04:52.114Z,16.58
2022-07-28T06:05:59.262Z,16.60
2022-07-28T06:07:00.804Z,16.62
2022-07-28T06:08:05.095Z,16.63
2022-07-28T06:09:09.499Z,16.65
2022-07-28T06:10:13.800Z,16.66
2022-07-28T06:11:22.779Z,16.67
2022-07-28T06:12:22.490Z,16.68
2022-07-28T06:13:26.917Z,16.68
2022-07-28T06:14:31.219Z,16.70
2022-07-28T06:15:35.575Z,16.71
2022-07-28T06:16:40.125Z,16.72
2022-07-28T06:17:44.297Z,16.75
2022-07-28T06:18:48.706Z,16.77
2022-07-28T06:19:53.196Z,16.78
2022-07-28T06:20:57.417Z,16.79
2022-07-28T06:22:01.868Z,16.82
2022-07-28T06:23:06.248Z,16.84
2022-07-28T06:24:10.811Z,16.86
2022-07-28T06:25:14.918Z,16.89
2022-07-28T06:26:19.270Z,16.91
2022-07-28T06:27:23.661Z,16.94
2022-07-28T06:28:28.022Z,16.96
2022-07-28T06:29:32.299Z,16.99
2022-07-28T06:30:36.721Z,17.02
2022-07-28T06:31:41.152Z,17.05
2022-07-28T06:32:45.391Z,17.09
2022-07-28T06:33:49.771Z,17.12
2022-07-28T06:34:54.182Z,17.15
2022-07-28T06:35:58.450Z,17.17
2022-07-28T06:37:02.886Z,17.21
2022-07-28T06:38:07.173Z,17.23
2022-07-28T06:39:11.576Z,17.26
2022-07-28T06:40:15.898Z,17.30
2022-07-28T06:41:20.293Z,17.34
2022-07-28T06:42:24.555Z,17.39
2022-07-28T06:43:28.974Z,17.43
2022-07-28T06:44:57.447Z,17.48
2022-07-28T06:45:37.618Z,17.54
2022-07-28T06:46:42.031Z,17.59
2022-07-28T06:47:47.347Z,17.64
2022-07-28T06:48:50.776Z,17.68
2022-07-28T06:49:54.969Z,17.72
2022-07-28T06:50:59.348Z,17.76
2022-07-28T06:52:03.800Z,17.80
2022-07-28T06:53:08.202Z,17.84
2022-07-28T06:54:12.972Z,17.88
2022-07-28T06:55:16.798Z,17.90
2022-07-28T06:56:21.483Z,17.92
2022-07-28T06:57:28.177Z,17.94
2022-07-28T06:58:29.895Z,17.96
2022-07-28T06:59:34.183Z,17.99
2022-07-28T07:00:38.657Z,18.02
2022-07-28T07:01:42.957Z,18.06
2022-07-28T07:02:47.277Z,18.10
2022-07-28T07:03:51.742Z,18.14
2022-07-28T07:04:56.053Z,18.19
2022-07-28T07:06:00.491Z,18.23
2022-07-28T07:07:04.753Z,18.27
2022-07-28T07:08:09.067Z,18.31
2022-07-28T07:09:13.419Z,18.35
2022-07-28T07:10:17.838Z,18.39
2022-07-28T07:11:22.183Z,18.41
2022-07-28T07:12:26.496Z,18.43
2022-07-28T07:13:30.943Z,18.44
2022-07-28T07:14:35.345Z,18.44
2022-07-28T07:15:39.761Z,18.43
2022-07-28T07:16:44.230Z,18.44
2022-07-28T07:17:48.447Z,18.41
2022-07-28T07:18:52.757Z,18.37
2022-07-28T07:19:57.123Z,18.37
2022-07-28T07:21:01.573Z,18.37
2022-07-28T07:22:05.859Z,18.37
2022-07-28T07:23:10.288Z,18.37
2022-07-28T07:24:15.096Z,18.38
2022-07-28T07:25:18.958Z,18.39
2022-07-28T07:26:23.420Z,18.40
2022-07-28T07:27:27.768Z,18.42
2022-07-28T07:28:32.161Z,18.44
2022-07-28T07:29:36.447Z,18.45
2022-07-28T07:30:40.877Z,18.44
2022-07-28T07:31:45.337Z,18.46
2022-07-28T07:32:49.559Z,18.48
2022-07-28T07:33:53.933Z,18.51
2022-07-28T07:34:58.246Z,18.51
2022-07-28T07:36:02.658Z,18.50
2022-07-28T07:37:06.963Z,18.48
2022-07-28T07:38:11.396Z,18.48
2022-07-28T07:39:15.712Z,18.46
2022-07-28T07:40:20.135Z,18.46
2022-07-28T07:41:24.443Z,18.49
2022-07-28T07:42:28.790Z,18.52
2022-07-28T07:43:33.174Z,18.53
2022-07-28T07:44:37.501Z,18.55
2022-07-28T07:45:41.871Z,18.58
2022-07-28T07:46:46.486Z,18.62
2022-07-28T07:47:50.715Z,18.65
2022-07-28T07:48:55.158Z,18.66
2022-07-28T07:50:03.026Z,18.65
2022-07-28T07:51:03.919Z,18.66
2022-07-28T07:52:08.307Z,18.65
2022-07-28T07:53:12.689Z,18.66
2022-07-28T07:54:17.601Z,18.68
2022-07-28T07:55:21.400Z,18.72
2022-07-28T07:56:31.826Z,18.76
2022-07-28T07:57:34.881Z,18.80
2022-07-28T07:58:39.252Z,18.83
2022-07-28T07:59:43.610Z,18.83
2022-07-28T08:00:47.926Z,18.83
2022-07-28T08:01:52.325Z,18.82
2022-07-28T08:02:56.659Z,18.81
2022-07-28T08:04:01.261Z,18.81
2022-07-28T08:05:05.350Z,18.81
2022-07-28T08:06:09.753Z,18.81
2022-07-28T08:07:14.156Z,18.82
2022-07-28T08:08:18.481Z,18.82
2022-07-28T08:09:22.890Z,18.79
2022-07-28T08:10:27.303Z,18.76
2022-07-28T08:11:31.672Z,18.72
2022-07-28T08:12:35.981Z,18.69
2022-07-28T08:13:40.333Z,18.67
2022-07-28T08:14:44.673Z,18.66
2022-07-28T08:15:49.117Z,18.65
2022-07-28T08:16:53.403Z,18.64
2022-07-28T08:17:57.845Z,18.64
2022-07-28T08:19:02.138Z,18.63
2022-07-28T08:20:06.491Z,18.63
2022-07-28T08:21:10.866Z,18.63
2022-07-28T08:22:15.255Z,18.62
2022-07-28T08:23:25.855Z,18.59
2022-07-28T08:24:33.683Z,18.56
2022-07-28T08:25:31.311Z,18.53
2022-07-28T08:26:34.942Z,18.52
2022-07-28T08:27:39.289Z,18.50
2022-07-28T08:28:43.638Z,18.48
2022-07-28T08:29:48.047Z,18.47
2022-07-28T08:30:52.594Z,18.46
2022-07-28T08:31:56.838Z,18.46
2022-07-28T08:33:01.245Z,18.45
2022-07-28T08:34:05.579Z,18.42
2022-07-28T08:35:32.412Z,18.38
2022-07-28T08:36:14.380Z,18.36
2022-07-28T08:37:18.852Z,18.36
2022-07-28T08:38:23.231Z,18.37
2022-07-28T08:39:27.646Z,18.37
2022-07-28T08:40:31.956Z,18.36
2022-07-28T08:41:36.424Z,18.36
2022-07-28T08:42:40.960Z,18.36
2022-07-28T08:43:45.269Z,18.36
2022-07-28T08:44:49.650Z,18.35
2022-07-28T08:45:58.271Z,18.34
2022-07-28T08:46:58.461Z,18.34
2022-07-28T08:48:10.257Z,18.34
2022-07-28T08:49:07.348Z,18.33
2022-07-28T08:50:11.676Z,18.31
2022-07-28T08:51:16.056Z,18.31
2022-07-28T08:52:20.455Z,18.33
2022-07-28T08:53:24.901Z,18.36
2022-07-28T08:54:29.250Z,18.37
2022-07-28T08:55:33.622Z,18.39
2022-07-28T08:56:38.017Z,18.43
2022-07-28T08:57:42.445Z,18.47
2022-07-28T08:58:46.819Z,18.49
2022-07-28T08:59:51.261Z,18.50
2022-07-28T09:00:55.653Z,18.53
2022-07-28T09:02:00.070Z,18.57
2022-07-28T09:03:04.629Z,18.61
2022-07-28T09:04:08.855Z,18.62
2022-07-28T09:05:13.275Z,18.62
2022-07-28T09:06:17.722Z,18.61
2022-07-28T09:07:22.120Z,18.61
2022-07-28T09:08:26.527Z,18.62
2022-07-28T09:09:30.914Z,18.63
2022-07-28T09:10:35.337Z,18.65
2022-07-28T09:11:39.729Z,18.65
2022-07-28T09:12:44.162Z,18.67
2022-07-28T09:13:53.590Z,18.69
2022-07-28T09:14:52.973Z,18.72
2022-07-28T09:15:57.494Z,18.75
2022-07-28T09:17:01.744Z,18.77
2022-07-28T09:18:06.060Z,18.77
2022-07-28T09:19:10.518Z,18.78
2022-07-28T09:20:14.938Z,18.80
2022-07-28T09:21:19.355Z,18.84
2022-07-28T09:22:23.768Z,18.90
2022-07-28T09:23:42.837Z,18.96
2022-07-28T09:24:32.597Z,19.03
2022-07-28T09:25:37.049Z,19.09
2022-07-28T09:26:41.532Z,19.12
2022-07-28T09:27:45.912Z,19.14
2022-07-28T09:28:50.319Z,19.15
2022-07-28T09:29:54.759Z,19.14
2022-07-28T09:30:59.229Z,19.14
2022-07-28T09:32:03.596Z,19.10
2022-07-28T09:33:07.953Z,19.07
2022-07-28T09:34:12.819Z,19.07
2022-07-28T09:35:16.850Z,19.11
2022-07-28T09:36:21.264Z,19.16
2022-07-28T09:37:27.604Z,19.20
2022-07-28T09:38:30.093Z,19.25
2022-07-28T09:39:34.432Z,19.28
2022-07-28T09:40:38.867Z,19.28
2022-07-28T09:41:43.225Z,19.29
2022-07-28T09:42:47.705Z,19.29
2022-07-28T09:43:55.137Z,19.27
2022-07-28T09:45:21.266Z,19.22
2022-07-28T09:46:00.979Z,19.18
2022-07-28T09:47:05.570Z,19.15
2022-07-28T09:48:09.928Z,19.10
2022-07-28T09:49:14.272Z,19.06
2022-07-28T09:50:18.523Z,19.04
2022-07-28T09:51:22.926Z,19.03
2022-07-28T09:52:27.230Z,19.02
2022-07-28T09:53:31.720Z,19.02
2022-07-28T09:54:40.577Z,19.02
2022-07-28T09:55:40.454Z,19.02
2022-07-28T09:56:44.872Z,19.03
2022-07-28T09:57:49.311Z,19.06
2022-07-28T09:58:53.660Z,19.11
2022-07-28T09:59:58.092Z,19.17
2022-07-28T10:01:02.528Z,19.22
2022-07-28T10:02:07.001Z,19.27
2022-07-28T10:03:11.425Z,19.31
2022-07-28T10:04:16.056Z,19.35
2022-07-28T10:05:20.245Z,19.40
2022-07-28T10:06:24.620Z,19.45
2022-07-28T10:07:29.001Z,19.50
2022-07-28T10:08:33.452Z,19.49
2022-07-28T10:09:37.879Z,19.47
2022-07-28T10:10:42.352Z,19.43
2022-07-28T10:11:46.683Z,19.42
2022-07-28T10:12:51.111Z,19.44
2022-07-28T10:13:55.534Z,19.41
2022-07-28T10:14:59.899Z,19.39
2022-07-28T10:16:04.383Z,19.40
2022-07-28T10:17:08.714Z,19.43
2022-07-28T10:18:13.161Z,19.46
2022-07-28T10:19:17.568Z,19.46
2022-07-28T10:20:21.953Z,19.46
2022-07-28T10:21:26.223Z,19.46
2022-07-28T10:22:30.669Z,19.48
2022-07-28T10:23:35.091Z,19.51
2022-07-28T10:24:39.483Z,19.54
2022-07-28T10:25:43.874Z,19.61
2022-07-28T10:26:48.264Z,19.67
2022-07-28T10:27:52.670Z,19.74
2022-07-28T10:28:57.069Z,19.82
2022-07-28T10:30:01.471Z,19.84
2022-07-28T10:31:06.033Z,19.83
2022-07-28T10:32:10.323Z,19.85
2022-07-28T10:33:17.736Z,19.84
2022-07-28T10:34:24.786Z,19.86
2022-07-28T10:35:25.575Z,19.91
2022-07-28T10:36:30.036Z,19.97
2022-07-28T10:37:34.454Z,20.06
2022-07-28T10:38:38.899Z,20.15
2022-07-28T10:39:57.283Z,20.25
2022-07-28T10:41:00.678Z,20.35
2022-07-28T10:42:05.054Z,20.43
2022-07-28T10:43:09.396Z,20.47
2022-07-28T10:44:14.384Z,20.49
2022-07-28T10:45:18.317Z,20.51
2022-07-28T10:46:22.727Z,20.53
2022-07-28T10:47:35.829Z,20.54
2022-07-28T10:48:31.482Z,20.49
2022-07-28T10:49:36.124Z,20.46
2022-07-28T10:50:40.350Z,20.45
2022-07-28T10:52:02.717Z,20.45
2022-07-28T10:52:52.572Z,20.46
2022-07-28T10:53:54.403Z,20.51
2022-07-28T10:54:58.097Z,20.55
2022-07-28T10:56:02.465Z,20.60
2022-07-28T10:57:06.902Z,20.65
2022-07-28T10:58:12.386Z,20.72
2022-07-28T10:59:15.824Z,20.77
2022-07-28T11:00:25.613Z,20.82
2022-07-28T11:01:46.354Z,20.88
2022-07-28T11:02:29.176Z,20.95
2022-07-28T11:03:33.565Z,20.97
2022-07-28T11:04:37.936Z,20.96
2022-07-28T11:05:42.387Z,20.97
2022-07-28T11:06:46.795Z,20.97
2022-07-28T11:07:51.242Z,20.99
2022-07-28T11:08:55.595Z,21.00
2022-07-28T11:10:00.029Z,21.00
2022-07-28T11:11:07.539Z,20.96
2022-07-28T11:12:09.655Z,20.89
2022-07-28T11:13:14.359Z,20.83
2022-07-28T11:14:17.955Z,20.80
2022-07-28T11:15:22.094Z,20.81
2022-07-28T11:16:26.557Z,20.84
2022-07-28T11:17:33.233Z,20.89
2022-07-28T11:18:35.295Z,20.91
2022-07-28T11:19:42.401Z,20.88
2022-07-28T11:20:44.154Z,20.83
2022-07-28T11:21:52.765Z,20.78
2022-07-28T11:22:53.029Z,20.72
2022-07-28T11:23:57.463Z,20.63
2022-07-28T11:25:19.296Z,20.52
2022-07-28T11:26:06.263Z,20.42
2022-07-28T11:27:10.695Z,20.34
2022-07-28T11:28:15.083Z,20.30
2022-07-28T11:29:19.479Z,20.29
2022-07-28T11:30:23.942Z,20.28
2022-07-28T11:31:28.303Z,20.25
2022-07-28T11:32:42.101Z,20.22
2022-07-28T11:33:37.069Z,20.22
2022-07-28T11:34:41.556Z,20.23
2022-07-28T11:35:45.987Z,20.27
2022-07-28T11:36:50.396Z,20.34
2022-07-28T11:37:54.841Z,20.42
2022-07-28T11:38:59.256Z,20.53
2022-07-28T11:40:03.674Z,20.59
2022-07-28T11:41:08.092Z,20.71
2022-07-28T11:42:12.564Z,20.86
2022-07-28T11:43:16.992Z,21.02
2022-07-28T11:44:21.532Z,21.18
2022-07-28T11:45:34.865Z,21.28
2022-07-28T11:46:30.427Z,21.35
2022-07-28T11:47:34.765Z,21.41
2022-07-28T11:48:39.413Z,21.45
2022-07-28T11:49:43.744Z,21.43
2022-07-28T11:50:48.137Z,21.43
2022-07-28T11:51:52.886Z,21.42
2022-07-28T11:52:56.943Z,21.40
2022-07-28T11:54:01.363Z,21.40
2022-07-28T11:55:05.790Z,21.41
2022-07-28T11:56:10.194Z,21.46
2022-07-28T11:57:14.539Z,21.50
2022-07-28T11:58:18.984Z,21.59
2022-07-28T11:59:23.444Z,21.80
2022-07-28T12:00:27.854Z,22.02
2022-07-28T12:01:32.504Z,22.26
2022-07-28T12:02:36.820Z,22.47
2022-07-28T12:03:49.575Z,22.61
2022-07-28T12:04:45.669Z,22.69
2022-07-28T12:05:50.054Z,22.77
2022-07-28T12:06:54.552Z,22.96
2022-07-28T12:07:59.004Z,23.21
2022-07-28T12:09:03.349Z,23.38
2022-07-28T12:10:07.864Z,23.50
2022-07-28T12:11:12.344Z,23.66
2022-07-28T12:12:16.785Z,23.77
2022-07-28T12:13:21.193Z,23.85
2022-07-28T12:14:25.652Z,24.05
2022-07-28T12:15:30.271Z,24.18
2022-07-28T12:16:34.969Z,24.37
2022-07-28T12:17:40.697Z,24.58
2022-07-28T12:18:43.679Z,24.79
2022-07-28T12:19:48.262Z,25.02
2022-07-28T12:20:52.667Z,25.20
2022-07-28T12:21:57.182Z,25.16
2022-07-28T12:23:01.635Z,24.92
2022-07-28T12:24:06.148Z,24.64
2022-07-28T12:25:13.389Z,24.44
2022-07-28T12:26:14.999Z,24.38
2022-07-28T12:27:19.451Z,24.35
2022-07-28T12:28:24.008Z,24.24
2022-07-28T12:29:32.334Z,24.20
2022-07-28T12:30:32.871Z,24.21
2022-07-28T12:31:37.427Z,24.26
2022-07-28T12:32:41.791Z,24.42
2022-07-28T12:33:46.238Z,24.63
2022-07-28T12:34:50.671Z,24.73
2022-07-28T12:35:55.107Z,24.83
2022-07-28T12:36:59.511Z,25.01
2022-07-28T12:38:03.987Z,25.21
2022-07-28T12:39:12.970Z,25.42
2022-07-28T12:40:12.934Z,25.64
2022-07-28T12:41:17.370Z,25.65
2022-07-28T12:42:21.887Z,25.50
2022-07-28T12:43:26.371Z,25.30
2022-07-28T12:44:30.733Z,25.17
2022-07-28T12:45:35.202Z,25.11
2022-07-28T12:46:39.619Z,25.12
2022-07-28T12:47:43.998Z,25.10
2022-07-28T12:48:48.620Z,24.94
2022-07-28T12:49:58.186Z,24.79
2022-07-28T12:50:57.370Z,24.71
2022-07-28T12:52:01.838Z,24.67
2022-07-28T12:53:06.207Z,24.68
2022-07-28T12:54:10.782Z,24.81
2022-07-28T12:55:15.129Z,24.97
2022-07-28T12:56:19.669Z,25.04
2022-07-28T12:57:24.266Z,25.03
2022-07-28T12:58:28.523Z,24.95
2022-07-28T12:59:32.978Z,24.79
2022-07-28T13:00:37.473Z,24.69
2022-07-28T13:01:42.010Z,24.64
2022-07-28T13:02:46.505Z,24.48
2022-07-28T13:03:54.039Z,24.29
2022-07-28T13:04:55.240Z,24.10
2022-07-28T13:05:59.664Z,24.10
2022-07-28T13:07:04.143Z,24.20
2022-07-28T13:08:08.621Z,24.35
2022-07-28T13:09:15.111Z,24.54
2022-07-28T13:10:17.524Z,24.72
2022-07-28T13:11:42.413Z,24.87
2022-07-28T13:12:26.448Z,24.94
2022-07-28T13:13:30.940Z,25.00
2022-07-28T13:14:35.501Z,24.99
2022-07-28T13:15:39.954Z,24.97
2022-07-28T13:16:44.443Z,24.86
2022-07-28T13:17:48.768Z,24.75
2022-07-28T13:18:53.231Z,24.63
2022-07-28T13:19:57.727Z,24.51
2022-07-28T13:21:02.222Z,24.30
2022-07-28T13:22:09.228Z,24.18
2022-07-28T13:23:11.174Z,24.13
2022-07-28T13:24:16.095Z,24.13
2022-07-28T13:25:20.073Z,24.11
2022-07-28T13:26:24.427Z,24.11
2022-07-28T13:27:28.928Z,24.08
2022-07-28T13:28:33.398Z,24.05
2022-07-28T13:29:37.843Z,23.95
2022-07-28T13:30:42.195Z,23.77
2022-07-28T13:31:46.706Z,23.65
2022-07-28T13:32:51.170Z,23.50
2022-07-28T13:33:55.398Z,23.34
2022-07-28T13:34:59.886Z,23.19
2022-07-28T13:36:04.270Z,22.96
2022-07-28T13:37:08.735Z,22.82
2022-07-28T13:38:13.097Z,22.67
2022-07-28T13:39:17.586Z,22.61
2022-07-28T13:40:22.007Z,22.57
2022-07-28T13:41:26.457Z,22.54
2022-07-28T13:42:30.871Z,22.56
2022-07-28T13:43:35.980Z,22.54
2022-07-28T13:44:39.754Z,22.52
2022-07-28T13:45:44.265Z,22.47
2022-07-28T13:46:49.889Z,22.41
2022-07-28T13:47:53.610Z,22.41
2022-07-28T13:49:00.049Z,22.38